Overview Statistics Trail Chart Weather Telemetry Raw packets
 

This is the latest recevied weather packets stored in our database for station/object KQ4PPF. If no packets are shown the sender has not sent any weather packets the latest 10 day(s).

<< 96 97 98 99 100 101 102 >>
Time Temp. Humidity Pressure Rain* Wind** Luminosity Snow
1787852757 29.44° C 70% 1014.5 hPa 0 mm - 721 W/m² -
1787852456 30° C 69% 1014.7 hPa 0 mm - 83 W/m² -
1787852156 29.44° C 68% 1014.9 hPa 0 mm - 117 W/m² -
1787851851 29.44° C 71% 1015.1 hPa 0 mm - 425 W/m² -
1787851549 30.56° C 68% 1015 hPa 0 mm - 80 W/m² -
1787851245 31.11° C 63% 1015.1 hPa 0 mm - 81 W/m² -
1787850940 31.11° C 64% 1015.3 hPa 0 mm - 710 W/m² -
1787850637 31.11° C 66% 1015.1 hPa 0 mm - 726 W/m² -
1787850331 31.11° C 65% 1015.1 hPa 0 mm - 730 W/m² -
1787850027 30.56° C 68% 1015 hPa 0 mm - 715 W/m² -
1787849720 30° C 69% 1015.3 hPa 0 mm - 693 W/m² -
1787849416 28.89° C 69% 1015.4 hPa 0 mm - 717 W/m² -
1787849114 28.89° C 71% 1015.2 hPa 0 mm - 133 W/m² -
1787848809 28.89° C 70% 1015.3 hPa 0 mm - 116 W/m² -
1787848508 30° C 69% 1015.4 hPa 0 mm - 92 W/m² -
1787848203 30.56° C 69% 1015.5 hPa 0 mm - 396 W/m² -
1787847902 30.56° C 70% 1015.6 hPa 0 mm - 687 W/m² -
1787847597 30.56° C 68% 1015.4 hPa 0 mm - 168 W/m² -
1787847293 30° C 68% 1015.3 hPa 0 mm - 606 W/m² -
1787846990 30° C 72% 1015.6 hPa 0 mm - 632 W/m² -
1787846689 30° C 70% 1015.5 hPa 0 mm - 606 W/m² -
1787846384 30.56° C 68% 1015.5 hPa 0 mm - 677 W/m² -
1787846080 30° C 72% 1015.4 hPa 0 mm - 682 W/m² -
1787845775 29.44° C 73% 1015.4 hPa 0 mm - 659 W/m² -
1787845471 30° C 71% 1015.4 hPa 0 mm - 665 W/m² -

* Rain latest hour (hover to see other rain measurements)
** Current wind speed in m/s (hover to see current wind gust speed)